createdAt,value
2022-08-24T00:00:59.135Z,27.58
2022-08-24T00:03:55.333Z,28.27
2022-08-24T00:06:44.149Z,28.70
2022-08-24T00:09:24.160Z,26.85
2022-08-24T00:12:18.149Z,27.50
2022-08-24T00:15:13.165Z,27.63
2022-08-24T00:18:00.167Z,30.52
2022-08-24T00:20:33.222Z,29.75
2022-08-24T00:23:20.177Z,27.52
2022-08-24T00:25:53.237Z,28.83
2022-08-24T00:28:40.179Z,28.10
2022-08-24T00:31:20.249Z,30.05
2022-08-24T00:34:14.178Z,28.92
2022-08-24T00:37:01.159Z,30.30
2022-08-24T00:39:34.260Z,30.85
2022-08-24T00:42:21.189Z,27.80
2022-08-24T00:44:54.261Z,30.35
2022-08-24T00:48:13.187Z,29.33
2022-08-24T00:50:49.253Z,29.02
2022-08-24T00:53:41.150Z,29.95
2022-08-24T00:56:25.191Z,31.52
2022-08-24T00:59:26.184Z,31.45
2022-08-24T01:02:24.265Z,29.05
2022-08-24T01:05:15.169Z,29.48
2022-08-24T01:07:57.236Z,31.20
2022-08-24T01:10:53.169Z,30.60
2022-08-24T01:13:33.194Z,30.60
2022-08-24T01:16:21.265Z,31.40
2022-08-24T01:19:01.193Z,31.38
2022-08-24T01:21:59.196Z,32.75
2022-08-24T01:24:32.278Z,31.25
2022-08-24T01:27:24.868Z,32.30
2022-08-24T01:30:11.208Z,29.95
2022-08-24T01:33:14.204Z,31.80
2022-08-24T01:36:33.212Z,32.17
2022-08-24T01:39:22.213Z,31.90
2022-08-24T01:42:09.215Z,33.13
2022-08-24T01:44:45.325Z,34.13
2022-08-24T01:47:32.206Z,33.40
2022-08-24T01:50:05.297Z,33.97
2022-08-24T01:53:05.038Z,31.97
2022-08-24T01:55:39.301Z,33.72
2022-08-24T01:58:26.201Z,32.35
2022-08-24T02:00:59.284Z,30.38
2022-08-24T02:03:46.214Z,30.92
2022-08-24T02:06:22.308Z,34.15
2022-08-24T02:09:09.217Z,31.23
2022-08-24T02:11:44.271Z,29.67
2022-08-24T02:14:32.968Z,30.30
2022-08-24T02:17:07.328Z,31.98
2022-08-24T02:19:54.245Z,30.98
2022-08-24T02:22:34.265Z,31.92
2022-08-24T02:25:29.248Z,30.52
2022-08-24T02:28:23.233Z,31.88
2022-08-24T02:31:19.246Z,32.67
2022-08-24T02:34:06.237Z,32.28
2022-08-24T02:36:46.216Z,32.58
2022-08-24T02:39:40.238Z,31.55
2022-08-24T02:42:27.244Z,29.85
2022-08-24T02:45:07.269Z,31.10
2022-08-24T02:47:54.224Z,32.25
2022-08-24T02:50:34.229Z,32.78
2022-08-24T02:53:23.254Z,30.52
2022-08-24T02:55:57.303Z,34.15
2022-08-24T02:58:45.257Z,32.15
2022-08-24T03:01:27.254Z,32.20
2022-08-24T03:04:17.321Z,33.55
2022-08-24T03:06:50.347Z,31.02
2022-08-24T03:09:40.373Z,31.88
2022-08-24T03:12:13.369Z,33.40
2022-08-24T03:15:00.305Z,33.55
2022-08-24T03:17:40.302Z,32.67
2022-08-24T03:20:30.300Z,33.17
2022-08-24T03:23:04.381Z,34.38
2022-08-24T03:25:51.322Z,34.53
2022-08-24T03:28:33.247Z,35.60
2022-08-24T03:31:27.330Z,35.42
2022-08-24T03:34:14.293Z,35.75
2022-08-24T03:36:57.321Z,40.38
2022-08-24T03:39:54.318Z,38.63
2022-08-24T03:42:43.256Z,38.30
2022-08-24T03:45:19.370Z,42.50
2022-08-24T03:48:06.289Z,43.75
2022-08-24T03:50:39.366Z,41.38
2022-08-24T03:53:26.300Z,38.38
2022-08-24T03:55:59.693Z,44.17
2022-08-24T03:58:54.300Z,35.83
2022-08-24T04:01:27.650Z,35.58
2022-08-24T04:04:17.001Z,38.25
2022-08-24T04:06:50.380Z,37.50
2022-08-24T04:09:37.323Z,37.17
2022-08-24T04:12:11.471Z,40.05
2022-08-24T04:14:59.319Z,39.03
2022-08-24T04:17:32.381Z,42.78
2022-08-24T04:20:19.324Z,40.92
2022-08-24T04:22:53.508Z,39.22
2022-08-24T04:25:49.321Z,39.15
2022-08-24T04:28:24.451Z,38.25
2022-08-24T04:31:21.483Z,40.97
2022-08-24T04:34:15.322Z,40.40
2022-08-24T04:37:11.436Z,38.40
2022-08-24T04:40:05.445Z,41.40
2022-08-24T04:42:59.333Z,40.70
2022-08-24T04:45:48.401Z,41.22
2022-08-24T04:48:22.678Z,41.15
2022-08-24T04:51:15.361Z,35.78
2022-08-24T04:53:48.421Z,42.53
2022-08-24T04:56:35.324Z,41.40
2022-08-24T04:59:08.502Z,41.55
2022-08-24T05:01:55.435Z,41.63
2022-08-24T05:04:28.559Z,38.95
2022-08-24T05:07:19.331Z,40.20
2022-08-24T05:09:59.370Z,42.15
2022-08-24T05:12:55.783Z,42.90
2022-08-24T05:15:42.348Z,38.60
2022-08-24T05:18:15.398Z,39.67
2022-08-24T05:21:02.395Z,37.83
2022-08-24T05:23:43.986Z,38.65
2022-08-24T05:26:34.359Z,43.17
2022-08-24T05:29:15.388Z,34.70
2022-08-24T05:32:09.397Z,39.35
2022-08-24T05:35:03.375Z,37.78
2022-08-24T05:37:50.354Z,44.67
2022-08-24T05:40:30.610Z,37.28
2022-08-24T05:43:21.375Z,42.13
2022-08-24T05:46:01.366Z,37.63
2022-08-24T05:48:52.600Z,39.60
2022-08-24T05:51:36.362Z,33.75
2022-08-24T05:54:27.372Z,35.95
2022-08-24T05:57:04.835Z,35.15
2022-08-24T05:59:53.370Z,39.92
2022-08-24T06:02:36.485Z,39.75
2022-08-24T06:05:24.407Z,38.47
2022-08-24T06:07:57.457Z,37.53
2022-08-24T06:10:54.387Z,36.70
2022-08-24T06:13:27.585Z,34.55
2022-08-24T06:16:21.832Z,36.58
2022-08-24T06:18:56.472Z,39.47
2022-08-24T06:21:45.377Z,33.40
2022-08-24T06:24:19.448Z,35.90
2022-08-24T06:27:24.411Z,39.45
2022-08-24T06:30:09.661Z,35.28
2022-08-24T06:32:56.404Z,33.17
2022-08-24T06:35:37.374Z,34.33
2022-08-24T06:38:33.380Z,36.70
2022-08-24T06:41:28.418Z,33.47
2022-08-24T06:44:49.370Z,32.17
2022-08-24T06:47:29.386Z,34.25
2022-08-24T06:53:21.380Z,34.00
2022-08-24T06:56:15.923Z,34.50
2022-08-24T06:59:10.411Z,33.58
2022-08-24T07:02:04.486Z,33.45
2022-08-24T07:04:54.407Z,36.20
2022-08-24T07:07:34.405Z,33.47
2022-08-24T07:10:22.044Z,33.92
2022-08-24T07:13:03.536Z,34.63
2022-08-24T07:15:58.454Z,34.05
2022-08-24T07:18:49.304Z,30.27
2022-08-24T07:21:28.297Z,34.00
2022-08-24T07:24:09.387Z,35.15
2022-08-24T07:26:51.524Z,32.13
2022-08-24T07:29:47.313Z,32.05
2022-08-24T07:32:45.414Z,31.45
2022-08-24T07:35:41.410Z,31.05
2022-08-24T07:38:28.428Z,31.30
2022-08-24T07:41:36.641Z,28.67
2022-08-24T07:44:18.470Z,28.83
2022-08-24T07:47:15.133Z,30.60
2022-08-24T07:50:01.394Z,32.67
2022-08-24T07:52:42.638Z,32.22
2022-08-24T07:55:22.411Z,32.83
2022-08-24T07:58:02.418Z,28.52
2022-08-24T08:00:36.453Z,31.95
2022-08-24T08:03:23.467Z,27.50
2022-08-24T08:06:05.474Z,29.05
2022-08-24T08:08:52.410Z,28.50
2022-08-24T08:11:32.422Z,28.00
2022-08-24T08:14:26.414Z,29.10
2022-08-24T08:17:21.468Z,29.10
2022-08-24T08:20:08.422Z,32.15
2022-08-24T08:23:01.241Z,33.53
2022-08-24T08:25:48.451Z,27.70
2022-08-24T08:28:25.895Z,32.10
2022-08-24T08:31:20.487Z,31.80
2022-08-24T08:34:14.436Z,26.35
2022-08-24T08:37:01.466Z,30.52
2022-08-24T08:39:34.540Z,32.53
2022-08-24T08:42:54.454Z,32.92
2022-08-24T08:46:04.524Z,38.28
2022-08-24T08:49:13.458Z,30.02
2022-08-24T08:52:36.444Z,31.88
2022-08-24T08:55:47.465Z,31.90
2022-08-24T08:58:48.441Z,29.45
2022-08-24T09:01:46.754Z,33.78
2022-08-24T09:05:10.460Z,27.38
2022-08-24T09:08:02.478Z,31.00
2022-08-24T09:11:08.556Z,33.65
2022-08-24T09:14:20.474Z,30.80
2022-08-24T09:17:31.549Z,35.65
2022-08-24T09:20:30.454Z,33.17
2022-08-24T09:23:32.538Z,37.28
2022-08-24T09:26:34.458Z,37.38
2022-08-24T09:29:19.554Z,41.25
2022-08-24T09:32:34.462Z,32.95
2022-08-24T09:35:29.468Z,36.22
2022-08-24T09:38:05.551Z,35.42
2022-08-24T09:41:17.484Z,32.13
2022-08-24T09:44:03.573Z,36.10
2022-08-24T09:47:02.480Z,38.92
2022-08-24T09:50:01.466Z,41.42
2022-08-24T09:53:29.469Z,33.67
2022-08-24T09:56:46.498Z,46.63
2022-08-24T09:59:41.544Z,39.40
2022-08-24T10:02:39.592Z,39.47
2022-08-24T10:05:49.626Z,45.55
2022-08-24T10:08:49.778Z,40.72
2022-08-24T10:12:05.510Z,33.53
2022-08-24T10:14:38.576Z,36.95
2022-08-24T10:17:46.484Z,38.47
2022-08-24T10:20:36.507Z,42.53
2022-08-24T10:23:33.485Z,43.67
2022-08-24T10:26:35.486Z,47.42
2022-08-24T10:29:25.653Z,38.13
2022-08-24T10:32:34.478Z,40.38
2022-08-24T10:35:23.515Z,36.90
2022-08-24T10:39:32.484Z,41.65
2022-08-24T10:42:50.517Z,45.53
2022-08-24T10:46:01.531Z,47.40
2022-08-24T10:48:51.604Z,50.13
2022-08-24T10:52:17.546Z,52.42
2022-08-24T10:54:51.611Z,47.10
2022-08-24T10:57:46.498Z,46.65
2022-08-24T11:00:23.405Z,56.22
2022-08-24T11:03:16.507Z,55.47
2022-08-24T11:06:03.544Z,52.75
2022-08-24T11:08:38.625Z,57.42
2022-08-24T11:11:51.523Z,55.78
2022-08-24T11:14:35.610Z,47.10
2022-08-24T11:17:25.521Z,49.97
2022-08-24T11:20:05.526Z,62.45
2022-08-24T11:24:04.446Z,49.08
2022-08-24T11:27:02.455Z,53.10
2022-08-24T11:30:07.749Z,48.47
2022-08-24T11:33:03.481Z,47.28
2022-08-24T11:35:53.731Z,42.55
2022-08-24T11:38:47.475Z,48.72
2022-08-24T11:41:53.527Z,48.45
2022-08-24T11:44:52.462Z,48.30
2022-08-24T11:47:44.459Z,52.22
2022-08-24T11:51:01.473Z,47.15
2022-08-24T11:54:11.508Z,44.05
2022-08-24T11:56:57.809Z,40.88
2022-08-24T12:00:14.466Z,51.50
2022-08-24T12:03:16.610Z,45.85
2022-08-24T12:06:51.472Z,44.60
2022-08-24T12:09:52.481Z,47.95
2022-08-24T12:12:48.494Z,45.83
2022-08-24T12:15:52.251Z,41.15
2022-08-24T12:18:51.484Z,40.13
2022-08-24T12:21:39.473Z,38.10
2022-08-24T12:24:13.170Z,49.60
2022-08-24T12:27:10.495Z,37.50
2022-08-24T12:29:56.492Z,44.33
2022-08-24T12:32:48.491Z,48.63
2022-08-24T12:35:58.489Z,42.17
2022-08-24T12:38:57.487Z,53.28
2022-08-24T12:42:14.585Z,54.72
2022-08-24T12:45:07.485Z,44.83
2022-08-24T12:48:03.931Z,60.70
2022-08-24T12:51:20.506Z,50.40
2022-08-24T12:54:24.846Z,51.88
2022-08-24T12:57:11.497Z,48.60
2022-08-24T13:00:00.491Z,53.78
2022-08-24T13:02:56.537Z,55.17
2022-08-24T13:05:52.504Z,51.60
2022-08-24T13:08:42.629Z,54.63
2022-08-24T13:11:40.507Z,45.80
2022-08-24T13:14:28.618Z,50.33
2022-08-24T13:17:18.521Z,52.33
2022-08-24T13:20:20.505Z,43.97
2022-08-24T13:23:26.515Z,59.13
2022-08-24T13:26:34.502Z,53.13
2022-08-24T13:29:07.610Z,61.53
2022-08-24T13:32:02.507Z,61.00
2022-08-24T13:34:55.538Z,49.47
2022-08-24T13:37:43.524Z,46.40
2022-08-24T13:40:29.938Z,56.72
2022-08-24T13:43:41.538Z,59.08
2022-08-24T13:46:33.630Z,53.15
2022-08-24T13:49:46.191Z,50.33
2022-08-24T13:52:48.224Z,57.60
2022-08-24T13:55:41.533Z,47.05
2022-08-24T13:58:38.535Z,47.50
2022-08-24T14:01:30.642Z,52.38
2022-08-24T14:04:10.610Z,52.50
2022-08-24T14:07:26.569Z,48.30
2022-08-24T14:10:26.547Z,45.55
2022-08-24T14:13:55.565Z,53.63
2022-08-24T14:17:35.281Z,50.30
2022-08-24T14:20:22.081Z,49.30
2022-08-24T14:23:30.586Z,33.67
2022-08-24T14:26:40.778Z,44.45
2022-08-24T14:29:37.565Z,56.60
2022-08-24T14:32:12.096Z,42.35
2022-08-24T14:35:12.556Z,48.60
2022-08-24T14:38:23.706Z,54.20
2022-08-24T14:41:24.546Z,47.80
2022-08-24T14:44:21.540Z,50.72
2022-08-24T14:47:20.569Z,59.65
2022-08-24T14:50:13.124Z,50.33
2022-08-24T14:53:14.570Z,58.45
2022-08-24T14:56:27.575Z,49.97
2022-08-24T14:59:53.566Z,48.55
2022-08-24T15:02:58.566Z,41.72
2022-08-24T15:06:27.193Z,37.63
2022-08-24T15:09:34.580Z,44.42
2022-08-24T15:12:40.588Z,43.65
2022-08-24T15:15:30.628Z,48.08
2022-08-24T15:18:09.760Z,49.15
2022-08-24T15:21:06.596Z,52.05
2022-08-24T15:24:27.573Z,47.00
2022-08-24T15:27:37.600Z,47.15
2022-08-24T15:30:29.592Z,50.40
2022-08-24T15:33:19.711Z,42.03
2022-08-24T15:36:22.592Z,58.92
2022-08-24T15:39:02.610Z,53.22
2022-08-24T15:41:56.592Z,50.03
2022-08-24T15:44:44.610Z,47.85
2022-08-24T15:47:27.708Z,43.60
2022-08-24T15:50:28.603Z,45.78
2022-08-24T15:53:06.727Z,43.65
2022-08-24T15:55:55.603Z,48.63
2022-08-24T15:58:41.623Z,50.20
2022-08-24T16:01:56.597Z,42.42
2022-08-24T16:04:50.636Z,49.03
2022-08-24T16:07:37.635Z,54.00
2022-08-24T16:10:45.650Z,45.78
2022-08-24T16:13:38.618Z,48.42
2022-08-24T16:16:15.723Z,48.88
2022-08-24T16:19:08.657Z,51.60
2022-08-24T16:21:51.062Z,52.30
2022-08-24T16:24:45.631Z,40.65
2022-08-24T16:27:22.739Z,52.75
2022-08-24T16:30:28.665Z,53.35
2022-08-24T16:33:10.626Z,38.50
2022-08-24T16:36:05.604Z,37.83
2022-08-24T16:38:55.644Z,52.88
2022-08-24T16:41:31.694Z,52.13
2022-08-24T16:44:18.644Z,46.33
2022-08-24T16:46:51.712Z,42.90
2022-08-24T16:49:40.617Z,45.83
2022-08-24T16:52:14.716Z,64.65
2022-08-24T16:55:01.660Z,53.45
2022-08-24T16:57:38.266Z,49.53
2022-08-24T17:00:25.651Z,49.25
2022-08-24T17:02:59.075Z,56.67
2022-08-24T17:05:45.642Z,60.67
2022-08-24T17:08:26.643Z,39.42
2022-08-24T17:11:13.662Z,50.25
2022-08-24T17:13:50.156Z,47.03
2022-08-24T17:16:38.728Z,44.65
2022-08-24T17:19:17.760Z,52.40
2022-08-24T17:22:04.645Z,58.15
2022-08-24T17:24:38.795Z,46.67
2022-08-24T17:27:27.659Z,47.15
2022-08-24T17:30:00.772Z,58.28
2022-08-24T17:32:47.658Z,42.42
2022-08-24T17:35:21.282Z,57.58
2022-08-24T17:38:07.666Z,51.15
2022-08-24T17:40:48.664Z,39.97
2022-08-24T17:43:42.665Z,53.17
2022-08-24T17:46:29.687Z,43.72
2022-08-24T17:49:03.757Z,46.95
2022-08-24T17:51:51.724Z,46.33
2022-08-24T17:54:28.388Z,53.72
2022-08-24T17:57:18.688Z,52.70
2022-08-24T17:59:52.943Z,46.55
2022-08-24T18:02:41.685Z,51.45
2022-08-24T18:05:23.678Z,59.90
2022-08-24T18:08:17.694Z,47.97
2022-08-24T18:11:05.738Z,49.58
2022-08-24T18:13:38.782Z,53.00
2022-08-24T18:16:28.796Z,54.72
2022-08-24T18:19:09.685Z,51.08
2022-08-24T18:22:03.715Z,58.35
2022-08-24T18:24:51.685Z,53.97
2022-08-24T18:27:31.816Z,57.08
2022-08-24T18:30:25.232Z,55.05
2022-08-24T18:33:04.506Z,59.40
2022-08-24T18:35:53.713Z,62.38
2022-08-24T18:38:29.798Z,51.03
2022-08-24T18:41:16.714Z,51.00
2022-08-24T18:43:49.798Z,45.13
2022-08-24T18:46:37.716Z,47.20
2022-08-24T18:49:18.718Z,50.72
2022-08-24T18:52:13.714Z,40.80
2022-08-24T18:55:00.719Z,38.60
2022-08-24T18:57:33.818Z,37.88
2022-08-24T19:00:20.731Z,34.15
2022-08-24T19:02:53.822Z,37.63
2022-08-24T19:05:40.711Z,37.75
2022-08-24T19:08:18.812Z,38.63
2022-08-24T19:11:05.720Z,34.20
2022-08-24T19:13:46.746Z,38.42
2022-08-24T19:16:40.789Z,39.35
2022-08-24T19:19:34.741Z,34.88
2022-08-24T19:22:30.722Z,35.22
2022-08-24T19:25:28.730Z,36.53
2022-08-24T19:28:01.838Z,33.72
2022-08-24T19:30:48.728Z,34.85
2022-08-24T19:33:29.817Z,35.60
2022-08-24T19:36:16.735Z,33.88
2022-08-24T19:38:49.822Z,37.92
2022-08-24T19:41:37.142Z,35.70
2022-08-24T19:44:31.355Z,34.47
2022-08-24T19:47:18.765Z,35.60
2022-08-24T19:49:58.723Z,36.53
2022-08-24T19:52:46.761Z,38.00
2022-08-24T19:55:27.744Z,38.40
2022-08-24T19:58:39.779Z,37.60
2022-08-24T20:01:29.794Z,47.03
2022-08-24T20:04:09.743Z,40.33
2022-08-24T20:07:03.758Z,45.65
2022-08-24T20:09:57.740Z,43.80
2022-08-24T20:12:52.777Z,58.22
2022-08-24T20:15:39.753Z,41.35
2022-08-24T20:18:12.875Z,43.05
2022-08-24T20:20:59.808Z,47.00
2022-08-24T20:23:33.888Z,41.67
2022-08-24T20:26:20.787Z,43.05
2022-08-24T20:28:59.057Z,45.60
2022-08-24T20:31:46.854Z,47.80
2022-08-24T20:34:23.987Z,41.38
2022-08-24T20:37:10.767Z,41.85
2022-08-24T20:39:51.829Z,44.50
2022-08-24T20:42:38.780Z,51.00
2022-08-24T20:45:19.795Z,42.97
2022-08-24T20:48:06.765Z,40.05
2022-08-24T20:50:46.779Z,41.45
2022-08-24T20:53:40.782Z,42.60
2022-08-24T20:56:32.778Z,42.63
2022-08-24T20:59:09.904Z,40.78
2022-08-24T21:01:56.792Z,39.28
2022-08-24T21:04:30.056Z,43.13
2022-08-24T21:07:18.786Z,44.00
2022-08-24T21:09:51.939Z,41.25
2022-08-24T21:12:38.809Z,39.45
2022-08-24T21:15:13.572Z,40.20
2022-08-24T21:18:00.806Z,41.40
2022-08-24T21:20:34.529Z,38.58
2022-08-24T21:23:20.811Z,43.78
2022-08-24T21:26:00.813Z,41.78
2022-08-24T21:28:56.795Z,40.08
2022-08-24T21:31:44.810Z,37.20
2022-08-24T21:34:36.724Z,40.63
2022-08-24T21:37:25.824Z,39.30
2022-08-24T21:40:06.895Z,36.05
2022-08-24T21:43:00.822Z,37.85
2022-08-24T21:45:48.819Z,39.92
2022-08-24T21:48:22.889Z,37.20
2022-08-24T21:51:09.812Z,36.28
2022-08-24T21:53:42.885Z,40.10
2022-08-24T21:56:33.826Z,35.97
2022-08-24T21:59:14.826Z,37.45
2022-08-24T22:02:08.869Z,38.47
2022-08-24T22:05:07.827Z,37.65
2022-08-24T22:07:54.817Z,44.58
2022-08-24T22:10:27.895Z,36.97
2022-08-24T22:13:14.832Z,35.80
2022-08-24T22:15:51.011Z,43.95
2022-08-24T22:18:37.847Z,36.50
2022-08-24T22:21:20.833Z,42.63
2022-08-24T22:24:14.847Z,36.33
2022-08-24T22:27:01.816Z,34.92
2022-08-24T22:29:42.855Z,33.17
2022-08-24T22:32:30.844Z,31.77
2022-08-24T22:35:10.848Z,38.45
2022-08-24T22:38:04.842Z,34.58
2022-08-24T22:40:58.815Z,35.63
2022-08-24T22:44:04.847Z,41.08
2022-08-24T22:46:39.325Z,38.38
2022-08-24T22:49:28.859Z,36.70
2022-08-24T22:52:02.950Z,37.00
2022-08-24T22:54:49.858Z,38.42
2022-08-24T22:57:22.938Z,45.53
2022-08-24T23:00:11.848Z,35.35
2022-08-24T23:02:56.858Z,54.78
2022-08-24T23:05:50.861Z,36.53
2022-08-24T23:08:37.869Z,50.15
2022-08-24T23:11:10.961Z,35.50
2022-08-24T23:13:57.862Z,34.00
2022-08-24T23:16:32.962Z,34.50
2022-08-24T23:19:40.905Z,32.95
2022-08-24T23:22:25.899Z,34.50
2022-08-24T23:25:22.855Z,36.83
2022-08-24T23:28:09.885Z,35.88
2022-08-24T23:30:49.926Z,34.85
2022-08-24T23:33:43.893Z,33.95
2022-08-24T23:36:32.882Z,38.05
2022-08-24T23:39:06.021Z,34.15
2022-08-24T23:41:52.883Z,37.30
2022-08-24T23:44:29.991Z,35.65
2022-08-24T23:47:16.904Z,35.08
2022-08-24T23:49:51.013Z,34.47
2022-08-24T23:52:37.884Z,34.42
2022-08-24T23:55:21.109Z,32.78
2022-08-24T23:58:08.868Z,34.35
